createdAt,value
2018-10-11T00:01:33.657Z,8.70
2018-10-11T00:04:01.921Z,8.70
2018-10-11T00:06:30.105Z,8.70
2018-10-11T00:11:26.262Z,8.60
2018-10-11T00:16:22.466Z,8.60
2018-10-11T00:18:50.724Z,8.60
2018-10-11T00:21:18.944Z,8.50
2018-10-11T00:23:47.193Z,8.50
2018-10-11T00:31:11.389Z,8.50
2018-10-11T00:33:39.601Z,8.40
2018-10-11T00:36:07.797Z,8.50
2018-10-11T00:38:36.034Z,8.50
2018-10-11T00:41:04.223Z,8.50
2018-10-11T00:43:32.446Z,8.40
2018-10-11T00:46:00.718Z,8.40
2018-10-11T00:48:28.918Z,8.40
2018-10-11T00:50:57.281Z,8.40
2018-10-11T00:58:21.578Z,8.40
2018-10-11T01:00:49.801Z,8.30
2018-10-11T01:05:46.018Z,8.10
2018-10-11T01:08:14.220Z,8.10
2018-10-11T01:10:42.416Z,8.10
2018-10-11T01:15:38.704Z,8.10
2018-10-11T01:18:06.904Z,8.10
2018-10-11T01:20:35.102Z,8.20
2018-10-11T01:23:03.305Z,8.20
2018-10-11T01:27:59.526Z,8.20
2018-10-11T01:30:27.723Z,8.20
2018-10-11T01:32:55.908Z,8.30
2018-10-11T01:35:24.174Z,8.30
2018-10-11T01:45:20.731Z,8.20
2018-10-11T01:47:48.914Z,8.20
2018-10-11T01:57:41.041Z,8.00
2018-10-11T02:00:09.214Z,8.00
2018-10-11T02:05:05.382Z,8.10
2018-10-11T02:07:33.573Z,8.10
2018-10-11T02:10:01.750Z,8.20
2018-10-11T02:12:29.942Z,8.20
2018-10-11T02:14:58.187Z,8.20
2018-10-11T02:17:26.402Z,8.30
2018-10-11T02:19:54.869Z,8.30
2018-10-11T02:22:23.061Z,8.30
2018-10-11T02:24:51.293Z,8.20
2018-10-11T02:27:19.506Z,8.30
2018-10-11T02:29:47.691Z,8.30
2018-10-11T02:32:15.895Z,8.20
2018-10-11T02:37:12.038Z,8.30
2018-10-11T02:39:40.233Z,8.40
2018-10-11T02:42:08.501Z,8.40
2018-10-11T02:44:36.738Z,8.50
2018-10-11T02:52:00.912Z,8.30
2018-10-11T02:57:04.048Z,8.10
2018-10-11T02:59:34.862Z,8.10
2018-10-11T03:02:09.116Z,8.10
2018-10-11T03:07:11.090Z,8.20
2018-10-11T03:09:39.839Z,8.30
2018-10-11T03:17:04.090Z,8.50
2018-10-11T03:19:32.286Z,8.50
2018-10-11T03:22:00.508Z,8.30
2018-10-11T03:24:28.756Z,8.20
2018-10-11T03:27:00.048Z,8.30
2018-10-11T03:31:57.665Z,8.50
2018-10-11T03:34:26.822Z,8.60
2018-10-11T03:36:55.393Z,8.70
2018-10-11T03:39:23.662Z,8.70
2018-10-11T03:41:51.890Z,8.60
2018-10-11T03:46:48.126Z,8.30
2018-10-11T03:51:44.338Z,8.00
2018-10-11T03:56:40.524Z,8.00
2018-10-11T03:59:08.766Z,8.00
2018-10-11T04:01:36.969Z,7.90
2018-10-11T04:04:05.180Z,7.90
2018-10-11T04:09:01.322Z,8.00
2018-10-11T04:11:29.470Z,7.90
2018-10-11T04:13:57.670Z,7.80
2018-10-11T04:16:25.820Z,7.70
2018-10-11T04:21:21.993Z,7.60
2018-10-11T04:23:50.115Z,7.60
2018-10-11T04:26:18.267Z,7.70
2018-10-11T04:28:46.438Z,7.70
2018-10-11T04:31:14.636Z,7.60
2018-10-11T04:38:38.705Z,7.60
2018-10-11T04:41:07.071Z,7.60
2018-10-11T04:43:35.250Z,7.70
2018-10-11T04:46:03.415Z,7.70
2018-10-11T04:48:31.619Z,7.70
2018-10-11T04:50:59.778Z,7.80
2018-10-11T04:53:27.972Z,7.80
2018-10-11T04:58:24.022Z,7.90
2018-10-11T05:00:52.233Z,7.80
2018-10-11T05:03:20.411Z,7.60
2018-10-11T05:05:48.590Z,7.60
2018-10-11T05:08:16.753Z,7.70
2018-10-11T05:10:45.494Z,7.70
2018-10-11T05:13:13.986Z,7.70
2018-10-11T05:15:42.526Z,7.70
2018-10-11T05:18:11.631Z,7.80
2018-10-11T05:20:39.861Z,7.80
2018-10-11T05:23:08.059Z,7.80
2018-10-11T05:25:36.255Z,7.80
2018-10-11T05:28:04.395Z,7.80
2018-10-11T05:30:32.751Z,7.80
2018-10-11T05:33:00.919Z,7.80
2018-10-11T05:37:57.059Z,7.70
2018-10-11T05:40:25.230Z,7.70
2018-10-11T05:42:53.403Z,7.70
2018-10-11T05:45:23.077Z,7.80
2018-10-11T05:55:15.581Z,7.90
2018-10-11T06:02:53.306Z,7.70
2018-10-11T06:05:21.460Z,7.70
2018-10-11T06:07:49.876Z,7.80
2018-10-11T06:10:18.065Z,7.70
2018-10-11T06:12:46.271Z,7.60
2018-10-11T06:17:43.284Z,7.70
2018-10-11T06:27:35.251Z,7.80
2018-10-11T06:30:03.422Z,7.90
2018-10-11T06:32:31.604Z,7.90
2018-10-11T06:34:59.798Z,8.00
2018-10-11T06:37:28.382Z,8.00
2018-10-11T06:39:57.087Z,8.00
2018-10-11T06:42:25.343Z,8.00
2018-10-11T06:44:53.742Z,8.00
2018-10-11T06:47:21.958Z,8.10
2018-10-11T06:49:50.168Z,8.20
2018-10-11T06:52:18.315Z,8.30
2018-10-11T06:59:42.359Z,8.60
2018-10-11T07:02:10.542Z,8.60
2018-10-11T07:07:06.804Z,8.80
2018-10-11T07:12:02.921Z,9.00
2018-10-11T07:21:54.906Z,9.50
2018-10-11T07:24:23.071Z,9.50
2018-10-11T07:29:19.163Z,9.80
2018-10-11T07:31:47.401Z,10.00
2018-10-11T07:34:15.574Z,10.20
2018-10-11T07:36:43.738Z,10.30
2018-10-11T07:39:13.077Z,10.40
2018-10-11T07:46:37.786Z,10.80
2018-10-11T07:59:00.816Z,11.30
2018-10-11T08:01:29.828Z,11.30
2018-10-11T08:03:58.280Z,11.40
2018-10-11T08:06:26.458Z,11.40
2018-10-11T08:08:55.003Z,11.40
2018-10-11T08:11:24.144Z,11.50
2018-10-11T08:13:52.199Z,11.50
2018-10-11T08:16:20.608Z,11.60
2018-10-11T08:18:48.804Z,11.70
2018-10-11T08:21:16.814Z,11.80
2018-10-11T08:23:44.990Z,11.90
2018-10-11T08:26:13.529Z,12.00
2018-10-11T08:31:10.303Z,12.30
2018-10-11T08:33:38.522Z,12.50
2018-10-11T08:36:06.843Z,12.60
2018-10-11T08:38:35.145Z,12.70
2018-10-11T08:43:31.265Z,13.10
2018-10-11T08:45:59.343Z,13.20
2018-10-11T08:48:27.497Z,13.30
2018-10-11T08:50:55.692Z,13.40
2018-10-11T08:53:23.862Z,13.50
2018-10-11T08:55:51.976Z,13.70
2018-10-11T08:58:20.114Z,13.80
2018-10-11T09:00:48.246Z,13.90
2018-10-11T09:03:16.454Z,14.10
2018-10-11T09:05:44.584Z,14.20
2018-10-11T09:08:12.736Z,14.30
2018-10-11T09:10:40.950Z,14.40
2018-10-11T09:13:09.034Z,14.60
2018-10-11T09:18:05.110Z,14.70
2018-10-11T09:20:33.271Z,14.70
2018-10-11T09:25:29.534Z,14.80
2018-10-11T09:27:57.694Z,14.90
2018-10-11T09:30:25.941Z,15.00
2018-10-11T09:32:54.011Z,15.10
2018-10-11T09:35:22.159Z,15.00
2018-10-11T09:37:50.306Z,15.10
2018-10-11T09:40:18.473Z,15.20
2018-10-11T09:42:46.622Z,15.30
2018-10-11T09:47:42.675Z,15.60
2018-10-11T09:50:10.847Z,15.70
2018-10-11T09:55:06.980Z,15.90
2018-10-11T09:57:36.114Z,16.00
2018-10-11T10:00:11.863Z,16.10
2018-10-11T10:02:40.038Z,16.00
2018-10-11T10:05:08.589Z,16.20
2018-10-11T10:07:36.771Z,16.30
2018-10-11T10:10:05.372Z,16.40
2018-10-11T10:12:33.536Z,16.40
2018-10-11T10:15:01.693Z,16.40
2018-10-11T10:17:29.835Z,16.40
2018-10-11T10:19:57.977Z,16.40
2018-10-11T10:22:26.127Z,16.50
2018-10-11T10:24:54.302Z,16.60
2018-10-11T10:27:22.696Z,16.60
2018-10-11T10:32:18.543Z,17.00
2018-10-11T10:39:42.918Z,17.30
2018-10-11T10:42:11.047Z,17.50
2018-10-11T10:47:07.118Z,17.70
2018-10-11T10:57:00.690Z,18.00
2018-10-11T10:59:28.850Z,18.20
2018-10-11T11:01:57.030Z,18.30
2018-10-11T11:04:25.322Z,18.50
2018-10-11T11:09:21.390Z,18.60
2018-10-11T11:11:49.545Z,18.80
2018-10-11T11:14:17.908Z,18.90
2018-10-11T11:16:46.282Z,19.00
2018-10-11T11:19:14.966Z,19.10
2018-10-11T11:24:11.118Z,19.10
2018-10-11T11:29:07.258Z,19.20
2018-10-11T11:34:03.735Z,19.40
2018-10-11T11:36:31.888Z,19.50
2018-10-11T11:39:00.091Z,19.60
2018-10-11T11:41:28.292Z,19.70
2018-10-11T11:43:56.465Z,19.80
2018-10-11T11:46:24.638Z,19.90
2018-10-11T11:48:52.786Z,19.90
2018-10-11T11:53:48.912Z,19.90
2018-10-11T11:56:17.093Z,19.80
2018-10-11T12:01:13.204Z,19.80
2018-10-11T12:03:41.525Z,19.90
2018-10-11T12:06:10.278Z,19.90
2018-10-11T12:08:39.170Z,20.00
2018-10-11T12:11:07.893Z,19.90
2018-10-11T12:13:35.962Z,20.00
2018-10-11T12:16:04.118Z,20.00
2018-10-11T12:18:32.266Z,20.10
2018-10-11T12:21:00.427Z,20.20
2018-10-11T12:25:56.515Z,20.30
2018-10-11T12:28:24.746Z,20.40
2018-10-11T12:30:52.809Z,20.40
2018-10-11T12:33:20.971Z,20.50
2018-10-11T12:35:49.172Z,20.60
2018-10-11T12:38:17.330Z,20.50
2018-10-11T12:40:45.580Z,20.50
2018-10-11T12:43:13.742Z,20.50
2018-10-11T12:48:10.090Z,20.30
2018-10-11T12:53:06.777Z,20.30
2018-10-11T12:55:34.998Z,20.30
2018-10-11T12:58:03.186Z,20.30
2018-10-11T13:00:31.368Z,20.30
2018-10-11T13:05:27.436Z,20.30
2018-10-11T13:10:23.502Z,20.30
2018-10-11T13:12:51.655Z,20.10
2018-10-11T13:15:19.832Z,20.10
2018-10-11T13:17:48.002Z,20.10
2018-10-11T13:20:16.142Z,20.00
2018-10-11T13:25:12.248Z,19.90
2018-10-11T13:27:40.374Z,19.80
2018-10-11T13:30:08.553Z,19.70
2018-10-11T13:32:36.703Z,19.60
2018-10-11T13:35:05.129Z,19.60
2018-10-11T13:37:33.263Z,19.50
2018-10-11T13:42:29.347Z,19.50
2018-10-11T13:44:57.503Z,19.60
2018-10-11T13:47:25.809Z,19.60
2018-10-11T13:49:53.804Z,19.50
2018-10-11T13:52:22.571Z,19.50
2018-10-11T13:54:50.104Z,19.50
2018-10-11T13:57:18.614Z,19.50
2018-10-11T13:59:46.414Z,19.60
2018-10-11T14:02:14.559Z,19.60
2018-10-11T14:04:42.768Z,19.50
2018-10-11T14:07:10.925Z,19.50
2018-10-11T14:09:39.058Z,19.50
2018-10-11T14:12:07.223Z,19.60
2018-10-11T14:14:35.383Z,19.50
2018-10-11T14:17:03.531Z,19.60
2018-10-11T14:19:31.679Z,19.60
2018-10-11T14:21:59.819Z,19.60
2018-10-11T14:26:55.850Z,19.60
2018-10-11T14:29:24.014Z,19.60
2018-10-11T14:31:52.143Z,19.60
2018-10-11T14:34:20.274Z,19.60
2018-10-11T14:36:48.516Z,19.50
2018-10-11T14:39:16.590Z,19.60
2018-10-11T14:41:44.774Z,19.50
2018-10-11T14:44:12.962Z,19.50
2018-10-11T14:49:09.018Z,19.40
2018-10-11T14:56:33.078Z,19.30
2018-10-11T15:01:29.242Z,19.30
2018-10-11T15:03:57.403Z,19.20
2018-10-11T15:06:25.586Z,19.30
2018-10-11T15:08:53.774Z,19.20
2018-10-11T15:11:22.062Z,19.20
2018-10-11T15:13:50.142Z,19.20
2018-10-11T15:18:46.539Z,19.00
2018-10-11T15:23:42.653Z,18.90
2018-10-11T15:26:10.794Z,18.90
2018-10-11T15:28:38.957Z,18.90
2018-10-11T15:31:07.154Z,18.80
2018-10-11T15:33:35.322Z,18.80
2018-10-11T15:36:03.489Z,18.70
2018-10-11T15:38:31.675Z,18.70
2018-10-11T15:40:59.906Z,18.60
2018-10-11T15:43:28.098Z,18.60
2018-10-11T15:45:56.283Z,18.50
2018-10-11T15:48:24.475Z,18.40
2018-10-11T15:50:52.655Z,18.40
2018-10-11T15:53:20.847Z,18.40
2018-10-11T15:55:49.025Z,18.30
2018-10-11T15:58:17.216Z,18.20
2018-10-11T16:00:45.372Z,18.20
2018-10-11T16:05:41.830Z,18.00
2018-10-11T16:08:09.682Z,18.00
2018-10-11T16:13:05.794Z,17.80
2018-10-11T16:15:33.935Z,17.80
2018-10-11T16:18:02.127Z,17.70
2018-10-11T16:20:30.311Z,17.70
2018-10-11T16:22:58.476Z,17.60
2018-10-11T16:25:26.681Z,17.60
2018-10-11T16:27:54.846Z,17.60
2018-10-11T16:30:23.104Z,17.60
2018-10-11T16:32:51.255Z,17.60
2018-10-11T16:35:19.452Z,17.50
2018-10-11T16:37:47.606Z,17.60
2018-10-11T16:40:15.768Z,17.50
2018-10-11T16:45:11.843Z,17.40
2018-10-11T16:47:40.002Z,17.30
2018-10-11T16:50:08.234Z,17.30
2018-10-11T16:52:36.375Z,17.20
2018-10-11T16:55:04.684Z,17.20
2018-10-11T16:57:32.841Z,17.10
2018-10-11T17:02:29.737Z,17.00
2018-10-11T17:04:57.966Z,17.00
2018-10-11T17:07:26.106Z,16.90
2018-10-11T17:09:54.348Z,16.80
2018-10-11T17:12:22.418Z,16.70
2018-10-11T17:14:50.580Z,16.60
2018-10-11T17:17:18.735Z,16.70
2018-10-11T17:19:46.962Z,16.60
2018-10-11T17:24:43.026Z,16.60
2018-10-11T17:27:11.219Z,16.50
2018-10-11T17:29:39.374Z,16.30
2018-10-11T17:32:07.667Z,16.30
2018-10-11T17:34:35.799Z,16.30
2018-10-11T17:37:03.987Z,16.20
2018-10-11T17:39:32.130Z,16.20
2018-10-11T17:42:00.277Z,16.20
2018-10-11T17:44:28.495Z,16.20
2018-10-11T17:46:56.659Z,16.30
2018-10-11T17:51:52.722Z,16.20
2018-10-11T17:54:20.902Z,16.10
2018-10-11T17:56:49.123Z,16.10
2018-10-11T18:04:13.056Z,15.90
2018-10-11T18:06:41.203Z,15.90
2018-10-11T18:09:10.439Z,15.90
2018-10-11T18:11:38.599Z,15.80
2018-10-11T18:14:07.452Z,15.90
2018-10-11T18:16:35.608Z,15.80
2018-10-11T18:19:03.764Z,15.80
2018-10-11T18:21:31.973Z,15.70
2018-10-11T18:31:23.914Z,15.50
2018-10-11T18:33:52.093Z,15.50
2018-10-11T18:36:20.267Z,15.50
2018-10-11T18:38:48.438Z,15.50
2018-10-11T18:43:44.499Z,15.40
2018-10-11T18:46:12.705Z,15.30
2018-10-11T18:48:40.827Z,15.20
2018-10-11T18:53:37.142Z,15.00
2018-10-11T19:01:01.135Z,14.80
2018-10-11T19:03:29.284Z,14.70
2018-10-11T19:08:25.391Z,14.70
2018-10-11T19:10:53.650Z,14.60
2018-10-11T19:13:21.807Z,14.50
2018-10-11T19:15:50.151Z,14.40
2018-10-11T19:23:15.017Z,14.20
2018-10-11T19:25:43.179Z,14.10
2018-10-11T19:30:39.287Z,14.10
2018-10-11T19:33:07.468Z,14.00
2018-10-11T19:40:31.474Z,13.70
2018-10-11T19:42:59.663Z,13.70
2018-10-11T19:45:28.003Z,13.60
2018-10-11T19:47:56.203Z,13.60
2018-10-11T19:52:52.335Z,13.60
2018-10-11T19:55:20.515Z,13.60
2018-10-11T19:57:48.711Z,13.50
2018-10-11T20:00:16.879Z,13.50
2018-10-11T20:02:45.047Z,13.50
2018-10-11T20:07:41.235Z,13.50
2018-10-11T20:10:09.390Z,13.60
2018-10-11T20:15:05.894Z,13.60
2018-10-11T20:20:02.255Z,13.60
2018-10-11T20:22:30.430Z,13.40
2018-10-11T20:24:58.655Z,13.40
2018-10-11T20:27:26.847Z,13.40
2018-10-11T20:29:55.054Z,13.40
2018-10-11T20:32:23.243Z,13.50
2018-10-11T20:34:51.447Z,13.60
2018-10-11T20:37:19.627Z,13.60
2018-10-11T20:39:47.835Z,13.50
2018-10-11T20:42:16.030Z,13.50
2018-10-11T20:44:44.195Z,13.50
2018-10-11T20:47:12.367Z,13.50
2018-10-11T20:49:40.551Z,13.60
2018-10-11T20:52:08.788Z,13.60
2018-10-11T20:54:37.020Z,13.60
2018-10-11T20:57:05.215Z,13.70
2018-10-11T20:59:33.400Z,13.80
2018-10-11T21:04:29.454Z,13.80
2018-10-11T21:06:57.610Z,13.80
2018-10-11T21:09:25.742Z,13.80
2018-10-11T21:11:53.949Z,13.70
2018-10-11T21:14:22.088Z,13.70
2018-10-11T21:16:50.315Z,13.70
2018-10-11T21:19:18.456Z,13.70
2018-10-11T21:21:46.580Z,13.80
2018-10-11T21:26:42.636Z,13.90
2018-10-11T21:29:10.897Z,13.90
2018-10-11T21:34:07.015Z,13.90
2018-10-11T21:36:35.166Z,13.80
2018-10-11T21:39:04.670Z,13.70
2018-10-11T21:48:56.634Z,13.90
2018-10-11T21:51:24.802Z,13.90
2018-10-11T21:53:52.989Z,13.90
2018-10-11T21:58:49.111Z,14.00
2018-10-11T22:03:49.217Z,13.90
2018-10-11T22:11:13.422Z,13.90
2018-10-11T22:13:41.842Z,13.90
2018-10-11T22:16:10.459Z,13.90
2018-10-11T22:23:35.638Z,13.80
2018-10-11T22:26:03.806Z,13.80
2018-10-11T22:28:32.008Z,13.80
2018-10-11T22:38:23.957Z,13.60
2018-10-11T22:40:52.183Z,13.60
2018-10-11T22:43:20.345Z,13.60
2018-10-11T22:45:48.491Z,13.60
2018-10-11T22:48:16.718Z,13.60
2018-10-11T22:50:44.867Z,13.50
2018-10-11T22:55:40.924Z,13.40
2018-10-11T22:58:09.058Z,13.30
2018-10-11T23:03:05.186Z,13.20
2018-10-11T23:05:33.362Z,13.20
2018-10-11T23:08:01.531Z,13.10
2018-10-11T23:12:57.638Z,13.00
2018-10-11T23:15:25.860Z,13.00
2018-10-11T23:20:21.914Z,12.80
2018-10-11T23:25:18.017Z,12.50
2018-10-11T23:30:14.094Z,12.50
2018-10-11T23:32:42.713Z,12.50
2018-10-11T23:35:11.479Z,12.50
2018-10-11T23:45:04.538Z,12.50
2018-10-11T23:47:32.674Z,12.40
2018-10-11T23:50:00.842Z,12.30
2018-10-11T23:52:28.989Z,12.30
2018-10-11T23:59:52.986Z,12.20
